createdAt,value
2023-02-17T00:00:31.113Z,12.45
2023-02-17T00:02:58.983Z,12.35
2023-02-17T00:05:26.909Z,11.23
2023-02-17T00:07:54.144Z,11.57
2023-02-17T00:10:20.731Z,11.02
2023-02-17T00:12:47.221Z,11.60
2023-02-17T00:15:13.588Z,11.20
2023-02-17T00:17:40.074Z,11.02
2023-02-17T00:20:07.162Z,11.35
2023-02-17T00:22:33.586Z,10.32
2023-02-17T00:25:00.101Z,10.48
2023-02-17T00:27:26.505Z,10.70
2023-02-17T00:29:53.068Z,10.32
2023-02-17T00:32:19.548Z,11.07
2023-02-17T00:34:46.167Z,10.27
2023-02-17T00:37:13.410Z,10.65
2023-02-17T00:39:39.863Z,9.85
2023-02-17T00:42:06.476Z,9.55
2023-02-17T00:44:32.966Z,9.50
2023-02-17T00:46:59.387Z,9.77
2023-02-17T00:49:26.808Z,9.70
2023-02-17T00:51:53.689Z,9.77
2023-02-17T00:54:20.405Z,9.85
2023-02-17T00:56:46.866Z,9.25
2023-02-17T00:59:13.595Z,9.43
2023-02-17T01:01:40.081Z,9.82
2023-02-17T01:04:06.881Z,9.05
2023-02-17T01:06:37.229Z,9.40
2023-02-17T01:09:06.391Z,9.20
2023-02-17T01:11:34.584Z,9.65
2023-02-17T01:14:02.788Z,9.23
2023-02-17T01:16:38.474Z,9.23
2023-02-17T01:19:07.767Z,9.02
2023-02-17T01:21:34.323Z,9.10
2023-02-17T01:24:04.496Z,8.48
2023-02-17T01:26:33.057Z,10.45
2023-02-17T01:29:01.142Z,9.40
2023-02-17T01:31:28.299Z,8.70
2023-02-17T01:33:58.068Z,9.13
2023-02-17T01:36:24.932Z,9.45
2023-02-17T01:38:51.469Z,9.40
2023-02-17T01:41:20.698Z,9.48
2023-02-17T01:44:25.972Z,9.43
2023-02-17T01:46:54.354Z,9.63
2023-02-17T01:49:26.486Z,9.52
2023-02-17T01:52:07.529Z,9.80
2023-02-17T01:54:45.472Z,9.65
2023-02-17T01:57:14.849Z,9.23
2023-02-17T01:59:42.038Z,9.90
2023-02-17T02:02:09.312Z,9.90
2023-02-17T02:04:39.247Z,9.18
2023-02-17T02:07:11.621Z,9.23
2023-02-17T02:09:42.921Z,9.75
2023-02-17T02:12:27.660Z,10.07
2023-02-17T02:14:58.417Z,10.07
2023-02-17T02:17:30.882Z,9.70
2023-02-17T02:21:06.093Z,9.43
2023-02-17T02:23:58.621Z,9.80
2023-02-17T02:26:53.351Z,9.35
2023-02-17T02:29:50.280Z,9.27
2023-02-17T02:32:54.251Z,9.43
2023-02-17T02:35:26.706Z,8.18
2023-02-17T02:38:12.058Z,8.87
2023-02-17T02:40:46.414Z,9.30
2023-02-17T02:43:14.759Z,9.40
2023-02-17T02:45:41.936Z,8.75
2023-02-17T02:48:08.411Z,8.63
2023-02-17T02:50:54.863Z,8.40
2023-02-17T02:53:49.964Z,8.75
2023-02-17T02:56:38.403Z,7.25
2023-02-17T02:59:19.891Z,8.90
2023-02-17T03:02:16.633Z,8.57
2023-02-17T03:04:56.738Z,8.65
2023-02-17T03:07:54.215Z,8.68
2023-02-17T03:10:21.380Z,8.15
2023-02-17T03:12:47.877Z,7.63
2023-02-17T03:15:23.545Z,7.88
2023-02-17T03:17:49.952Z,8.27
2023-02-17T03:20:16.647Z,7.40
2023-02-17T03:22:48.030Z,8.27
2023-02-17T03:25:15.965Z,8.27
2023-02-17T03:27:43.305Z,7.88
2023-02-17T03:30:10.857Z,7.63
2023-02-17T03:32:37.344Z,8.57
2023-02-17T03:35:04.789Z,7.85
2023-02-17T03:37:31.269Z,7.70
2023-02-17T03:39:57.672Z,8.13
2023-02-17T03:42:24.255Z,8.00
2023-02-17T03:44:51.806Z,7.75
2023-02-17T03:47:18.318Z,7.30
2023-02-17T03:49:44.865Z,7.60
2023-02-17T03:52:11.283Z,7.97
2023-02-17T03:54:37.776Z,7.50
2023-02-17T03:57:04.223Z,7.00
2023-02-17T03:59:31.078Z,7.13
2023-02-17T04:01:57.511Z,7.75
2023-02-17T04:04:24.106Z,8.10
2023-02-17T04:06:50.651Z,7.55
2023-02-17T04:09:17.124Z,7.38
2023-02-17T04:11:44.380Z,6.97
2023-02-17T04:14:10.884Z,7.28
2023-02-17T04:16:39.100Z,7.20
2023-02-17T04:19:06.995Z,6.35
2023-02-17T04:21:33.798Z,7.32
2023-02-17T04:24:01.890Z,6.68
2023-02-17T04:26:29.096Z,6.75
2023-02-17T04:28:56.632Z,6.38
2023-02-17T04:31:23.867Z,7.10
2023-02-17T04:33:50.275Z,6.55
2023-02-17T04:36:16.998Z,7.05
2023-02-17T04:38:43.503Z,6.80
2023-02-17T04:41:10.027Z,6.30
2023-02-17T04:43:36.450Z,6.78
2023-02-17T04:46:03.053Z,6.80
2023-02-17T04:48:29.567Z,6.90
2023-02-17T04:50:56.254Z,6.47
2023-02-17T04:53:22.870Z,6.38
2023-02-17T04:55:52.289Z,6.50
2023-02-17T04:58:20.199Z,6.55
2023-02-17T05:00:48.529Z,5.30
2023-02-17T05:03:15.102Z,5.75
2023-02-17T05:05:41.567Z,5.47
2023-02-17T05:08:08.447Z,5.32
2023-02-17T05:10:34.934Z,5.38
2023-02-17T05:13:01.367Z,5.70
2023-02-17T05:15:27.754Z,5.78
2023-02-17T05:17:54.153Z,5.00
2023-02-17T05:20:20.851Z,5.10
2023-02-17T05:22:47.269Z,5.70
2023-02-17T05:25:13.735Z,5.10
2023-02-17T05:27:40.276Z,4.72
2023-02-17T05:30:07.894Z,5.22
2023-02-17T05:32:34.347Z,4.70
2023-02-17T05:35:00.790Z,4.75
2023-02-17T05:37:27.477Z,4.28
2023-02-17T05:39:53.965Z,4.65
2023-02-17T05:42:20.403Z,4.90
2023-02-17T05:44:46.840Z,4.32
2023-02-17T05:47:13.234Z,4.80
2023-02-17T05:49:39.725Z,3.95
2023-02-17T05:52:06.301Z,4.53
2023-02-17T05:54:32.734Z,4.50
2023-02-17T05:56:59.096Z,4.43
2023-02-17T05:59:25.585Z,4.78
2023-02-17T06:01:52.084Z,5.07
2023-02-17T06:04:18.730Z,5.03
2023-02-17T06:06:45.148Z,4.55
2023-02-17T06:09:11.549Z,4.75
2023-02-17T06:11:37.958Z,4.97
2023-02-17T06:14:04.479Z,5.03
2023-02-17T06:16:30.990Z,5.03
2023-02-17T06:18:59.910Z,5.60
2023-02-17T06:21:26.300Z,5.80
2023-02-17T06:23:52.758Z,5.95
2023-02-17T06:26:19.231Z,5.07
2023-02-17T06:28:45.818Z,5.85
2023-02-17T06:31:12.236Z,5.75
2023-02-17T06:33:38.738Z,5.70
2023-02-17T06:36:05.990Z,6.32
2023-02-17T06:38:32.603Z,6.65
2023-02-17T06:40:59.179Z,7.10
2023-02-17T06:43:25.574Z,7.18
2023-02-17T06:45:51.993Z,7.78
2023-02-17T06:48:18.521Z,7.78
2023-02-17T06:50:45.026Z,7.47
2023-02-17T06:53:11.451Z,8.55
2023-02-17T06:55:39.365Z,10.10
2023-02-17T06:58:05.839Z,9.82
2023-02-17T07:00:32.233Z,10.38
2023-02-17T07:02:58.763Z,10.07
2023-02-17T07:05:25.388Z,10.60
2023-02-17T07:07:53.461Z,9.88
2023-02-17T07:10:20.041Z,10.18
2023-02-17T07:12:46.584Z,10.88
2023-02-17T07:15:13.081Z,9.60
2023-02-17T07:17:39.557Z,10.20
2023-02-17T07:20:06.804Z,9.77
2023-02-17T07:22:33.180Z,9.27
2023-02-17T07:25:00.177Z,9.10
2023-02-17T07:27:26.570Z,9.00
2023-02-17T07:29:52.975Z,8.70
2023-02-17T07:32:19.361Z,8.80
2023-02-17T07:34:45.888Z,9.18
2023-02-17T07:37:12.487Z,8.18
2023-02-17T07:39:38.884Z,9.05
2023-02-17T07:42:06.185Z,9.18
2023-02-17T07:44:33.032Z,9.00
2023-02-17T07:46:59.616Z,9.43
2023-02-17T07:49:26.062Z,8.35
2023-02-17T07:51:52.449Z,8.43
2023-02-17T07:54:18.951Z,9.00
2023-02-17T07:56:45.330Z,7.78
2023-02-17T07:59:12.699Z,7.55
2023-02-17T08:01:39.166Z,8.20
2023-02-17T08:04:05.787Z,7.93
2023-02-17T08:06:32.688Z,8.15
2023-02-17T08:09:17.837Z,8.20
2023-02-17T08:12:03.183Z,8.52
2023-02-17T08:14:31.037Z,8.23
2023-02-17T08:16:58.481Z,7.40
2023-02-17T08:19:27.190Z,7.57
2023-02-17T08:21:56.701Z,7.70
2023-02-17T08:24:24.592Z,7.53
2023-02-17T08:26:51.596Z,7.10
2023-02-17T08:29:20.085Z,6.97
2023-02-17T08:31:50.879Z,6.57
2023-02-17T08:34:17.704Z,6.72
2023-02-17T08:36:44.207Z,6.93
2023-02-17T08:39:14.043Z,6.32
2023-02-17T08:41:41.086Z,6.43
2023-02-17T08:44:12.193Z,6.90
2023-02-17T08:46:39.084Z,6.45
2023-02-17T08:49:06.852Z,6.72
2023-02-17T08:51:33.324Z,6.32
2023-02-17T08:54:00.801Z,6.32
2023-02-17T08:56:27.571Z,6.03
2023-02-17T08:58:54.930Z,6.47
2023-02-17T09:01:22.461Z,5.90
2023-02-17T09:03:50.767Z,5.93
2023-02-17T09:06:17.989Z,6.07
2023-02-17T09:08:44.955Z,6.05
2023-02-17T09:11:15.225Z,5.03
2023-02-17T09:13:41.783Z,6.22
2023-02-17T09:16:08.988Z,5.85
2023-02-17T09:18:36.051Z,5.97
2023-02-17T09:21:11.042Z,5.38
2023-02-17T09:23:37.867Z,5.60
2023-02-17T09:26:08.305Z,5.55
2023-02-17T09:28:35.179Z,5.38
2023-02-17T09:31:29.597Z,5.47
2023-02-17T09:33:56.489Z,5.95
2023-02-17T09:36:25.426Z,5.70
2023-02-17T09:38:52.449Z,5.40
2023-02-17T09:41:22.352Z,6.03
2023-02-17T09:43:50.120Z,5.45
2023-02-17T09:46:28.768Z,5.13
2023-02-17T09:49:01.588Z,5.38
2023-02-17T09:51:52.069Z,5.57
2023-02-17T09:54:26.769Z,5.45
2023-02-17T09:56:56.903Z,5.88
2023-02-17T09:59:39.572Z,5.60
2023-02-17T10:02:14.499Z,5.57
2023-02-17T10:04:46.357Z,5.00
2023-02-17T10:07:34.904Z,5.53
2023-02-17T10:10:14.504Z,5.50
2023-02-17T10:12:46.249Z,4.82
2023-02-17T10:15:20.855Z,5.53
2023-02-17T10:18:08.239Z,5.05
2023-02-17T10:20:56.905Z,5.47
2023-02-17T10:23:26.492Z,5.03
2023-02-17T10:26:20.264Z,4.97
2023-02-17T10:29:13.571Z,5.05
2023-02-17T10:31:56.707Z,5.20
2023-02-17T10:34:42.190Z,5.65
2023-02-17T10:37:27.583Z,5.07
2023-02-17T10:39:57.062Z,5.07
2023-02-17T10:42:29.593Z,4.70
2023-02-17T10:45:02.898Z,5.90
2023-02-17T10:47:30.117Z,5.40
2023-02-17T10:49:58.319Z,4.75
2023-02-17T10:52:36.793Z,5.20
2023-02-17T10:55:24.416Z,5.28
2023-02-17T10:57:58.486Z,5.50
2023-02-17T11:00:25.100Z,5.78
2023-02-17T11:02:52.272Z,5.50
2023-02-17T11:05:31.567Z,4.90
2023-02-17T11:08:25.519Z,5.18
2023-02-17T11:13:40.015Z,4.50
2023-02-17T11:16:07.388Z,5.45
2023-02-17T11:18:38.906Z,4.70
2023-02-17T11:21:09.700Z,4.38
2023-02-17T11:23:47.930Z,4.65
2023-02-17T11:26:26.544Z,4.40
2023-02-17T11:28:53.600Z,4.63
2023-02-17T11:31:31.656Z,4.32
2023-02-17T11:33:58.274Z,4.50
2023-02-17T11:36:27.911Z,4.55
2023-02-17T11:38:54.584Z,4.38
2023-02-17T11:41:21.919Z,3.35
2023-02-17T11:43:58.552Z,4.57
2023-02-17T11:46:46.975Z,4.28
2023-02-17T11:49:34.560Z,4.03
2023-02-17T11:52:29.061Z,3.90
2023-02-17T11:55:14.692Z,4.10
2023-02-17T11:58:10.994Z,3.72
2023-02-17T12:01:04.888Z,3.85
2023-02-17T12:06:12.256Z,3.78
2023-02-17T12:09:03.562Z,3.60
2023-02-17T12:11:59.141Z,3.65
2023-02-17T12:14:31.474Z,3.28
2023-02-17T12:17:18.950Z,3.40
2023-02-17T12:20:02.155Z,2.70
2023-02-17T12:23:14.678Z,2.70
2023-02-17T12:26:06.582Z,2.95
2023-02-17T12:28:47.568Z,2.28
2023-02-17T12:31:29.470Z,2.50
2023-02-17T12:34:19.378Z,2.20
2023-02-17T12:36:48.714Z,1.90
2023-02-17T12:39:20.639Z,2.17
2023-02-17T12:41:50.301Z,2.25
2023-02-17T12:44:28.048Z,2.40
2023-02-17T12:46:59.784Z,2.35
2023-02-17T12:50:03.945Z,2.40
2023-02-17T12:55:21.870Z,2.30
2023-02-17T12:58:00.470Z,2.60
2023-02-17T13:00:46.852Z,2.17
2023-02-17T13:03:13.448Z,2.03
2023-02-17T13:05:47.432Z,2.80
2023-02-17T13:08:23.258Z,2.55
2023-02-17T13:11:04.405Z,2.35
2023-02-17T13:13:34.960Z,2.05
2023-02-17T13:16:07.691Z,2.28
2023-02-17T13:18:37.395Z,2.22
2023-02-17T13:21:24.666Z,2.17
2023-02-17T13:24:03.371Z,1.98
2023-02-17T13:26:37.037Z,1.88
2023-02-17T13:29:09.319Z,1.90
2023-02-17T13:31:47.392Z,2.28
2023-02-17T13:34:25.453Z,2.22
2023-02-17T13:36:52.470Z,2.00
2023-02-17T13:39:27.758Z,2.30
2023-02-17T13:41:57.788Z,2.42
2023-02-17T13:44:39.668Z,2.20
2023-02-17T13:47:29.658Z,1.83
2023-02-17T13:49:57.058Z,1.80
2023-02-17T13:52:26.818Z,1.40
2023-02-17T13:55:05.887Z,1.60
2023-02-17T13:57:35.839Z,1.40
2023-02-17T14:00:22.549Z,1.52
2023-02-17T14:02:51.858Z,1.40
2023-02-17T14:05:37.085Z,1.55
2023-02-17T14:08:18.768Z,1.73
2023-02-17T14:10:46.075Z,1.30
2023-02-17T14:13:13.861Z,1.48
2023-02-17T14:15:58.531Z,1.50
2023-02-17T14:18:35.327Z,1.60
2023-02-17T14:21:11.787Z,1.50
2023-02-17T14:23:52.225Z,1.30
2023-02-17T14:26:36.739Z,1.42
2023-02-17T14:29:06.566Z,1.70
2023-02-17T14:31:48.425Z,2.10
2023-02-17T14:34:20.651Z,2.00
2023-02-17T14:36:47.514Z,2.45
2023-02-17T14:39:16.007Z,2.50
2023-02-17T14:41:43.950Z,2.63
2023-02-17T14:44:10.423Z,2.63
2023-02-17T14:46:37.291Z,2.78
2023-02-17T14:49:04.174Z,2.42
2023-02-17T14:51:36.443Z,2.80
2023-02-17T14:54:10.534Z,2.95
2023-02-17T14:56:41.912Z,4.07
2023-02-17T14:59:09.885Z,4.18
2023-02-17T15:01:36.713Z,5.25
2023-02-17T15:04:03.584Z,4.85
2023-02-17T15:06:40.846Z,4.35
2023-02-17T15:09:16.418Z,3.80
2023-02-17T15:11:45.558Z,4.63
2023-02-17T15:14:17.426Z,4.20
2023-02-17T15:16:44.441Z,4.63
2023-02-17T15:19:11.928Z,4.25
2023-02-17T15:21:42.947Z,4.05
2023-02-17T15:24:22.826Z,3.80
2023-02-17T15:26:49.245Z,3.53
2023-02-17T15:29:19.086Z,3.10
2023-02-17T15:31:46.791Z,3.17
2023-02-17T15:34:16.013Z,3.67
2023-02-17T15:36:43.231Z,4.03
2023-02-17T15:39:11.125Z,4.05
2023-02-17T15:41:39.957Z,4.72
2023-02-17T15:44:12.168Z,5.22
2023-02-17T15:46:39.043Z,4.85
2023-02-17T15:49:05.969Z,4.70
2023-02-17T15:51:32.389Z,5.80
2023-02-17T15:53:58.810Z,5.30
2023-02-17T15:56:43.105Z,5.50
2023-02-17T15:59:16.215Z,4.93
2023-02-17T16:01:43.498Z,4.32
2023-02-17T16:04:11.510Z,4.32
2023-02-17T16:06:38.606Z,4.00
2023-02-17T16:09:05.597Z,3.83
2023-02-17T16:11:33.238Z,4.28
2023-02-17T16:14:01.022Z,3.42
2023-02-17T16:16:32.655Z,3.78
2023-02-17T16:19:00.670Z,3.88
2023-02-17T16:21:27.314Z,4.00
2023-02-17T16:23:58.900Z,4.25
2023-02-17T16:26:34.729Z,4.72
2023-02-17T16:29:14.880Z,4.13
2023-02-17T16:31:41.425Z,4.57
2023-02-17T16:34:07.927Z,4.75
2023-02-17T16:36:35.724Z,4.68
2023-02-17T16:39:11.442Z,9.25
2023-02-17T16:41:38.801Z,7.47
2023-02-17T16:44:07.399Z,13.70
2023-02-17T16:46:36.443Z,6.72
2023-02-17T16:49:15.194Z,8.45
2023-02-17T16:51:41.574Z,8.20
2023-02-17T16:54:09.820Z,6.60
2023-02-17T16:56:43.190Z,5.85
2023-02-17T17:01:44.688Z,6.93
2023-02-17T17:04:11.178Z,6.07
2023-02-17T17:06:41.937Z,6.25
2023-02-17T17:09:08.651Z,7.22
2023-02-17T17:11:35.073Z,6.53
2023-02-17T17:14:01.479Z,7.10
2023-02-17T17:16:31.594Z,6.82
2023-02-17T17:18:59.036Z,7.57
2023-02-17T17:21:25.416Z,6.60
2023-02-17T17:23:51.854Z,6.82
2023-02-17T17:26:23.370Z,7.35
2023-02-17T17:28:50.155Z,7.85
2023-02-17T17:31:18.078Z,7.05
2023-02-17T17:33:44.795Z,7.55
2023-02-17T17:36:26.607Z,7.57
2023-02-17T17:38:54.801Z,8.25
2023-02-17T17:41:23.035Z,8.73
2023-02-17T17:43:51.449Z,11.10
2023-02-17T17:46:20.928Z,8.43
2023-02-17T17:48:47.509Z,8.50
2023-02-17T17:51:16.056Z,9.32
2023-02-17T17:53:43.442Z,8.20
2023-02-17T17:56:21.941Z,7.97
2023-02-17T17:58:48.623Z,7.55
2023-02-17T18:01:15.648Z,7.82
2023-02-17T18:03:42.716Z,7.70
2023-02-17T18:06:14.637Z,7.22
2023-02-17T18:08:42.612Z,8.75
2023-02-17T18:11:09.168Z,7.22
2023-02-17T18:13:35.618Z,8.00
2023-02-17T18:16:02.845Z,7.78
2023-02-17T18:18:29.572Z,8.30
2023-02-17T18:20:56.024Z,7.57
2023-02-17T18:23:22.517Z,8.50
2023-02-17T18:25:48.891Z,7.18
2023-02-17T18:28:15.260Z,7.55
2023-02-17T18:30:43.322Z,7.68
2023-02-17T18:33:09.838Z,7.55
2023-02-17T18:35:37.001Z,8.07
2023-02-17T18:38:03.727Z,7.22
2023-02-17T18:40:30.805Z,7.82
2023-02-17T18:42:57.514Z,8.63
2023-02-17T18:45:26.085Z,9.05
2023-02-17T18:47:52.639Z,9.25
2023-02-17T18:50:19.054Z,8.68
2023-02-17T18:52:45.475Z,8.52
2023-02-17T18:55:12.349Z,8.90
2023-02-17T18:57:38.892Z,9.15
2023-02-17T19:00:09.486Z,8.57
2023-02-17T19:02:39.804Z,8.18
2023-02-17T19:05:07.430Z,7.85
2023-02-17T19:07:34.097Z,8.30
2023-02-17T19:10:00.955Z,8.75
2023-02-17T19:12:27.711Z,8.82
2023-02-17T19:14:55.938Z,8.70
2023-02-17T19:17:23.942Z,9.02
2023-02-17T19:19:52.099Z,9.57
2023-02-17T19:22:19.242Z,9.32
2023-02-17T19:24:51.376Z,10.07
2023-02-17T19:27:18.056Z,9.90
2023-02-17T19:29:44.523Z,9.82
2023-02-17T19:32:11.072Z,10.05
2023-02-17T19:34:38.444Z,10.38
2023-02-17T19:37:05.232Z,10.30
2023-02-17T19:39:31.919Z,9.35
2023-02-17T19:41:58.337Z,9.43
2023-02-17T19:44:25.016Z,8.93
2023-02-17T19:46:51.906Z,9.10
2023-02-17T19:49:18.546Z,9.02
2023-02-17T19:51:44.937Z,9.05
2023-02-17T19:54:11.316Z,9.50
2023-02-17T19:56:38.870Z,9.23
2023-02-17T19:59:05.622Z,9.55
2023-02-17T20:01:33.361Z,9.57
2023-02-17T20:04:02.941Z,10.68
2023-02-17T20:06:32.235Z,9.27
2023-02-17T20:09:07.133Z,9.82
2023-02-17T20:11:33.649Z,9.27
2023-02-17T20:14:01.248Z,9.68
2023-02-17T20:16:29.102Z,9.90
2023-02-17T20:18:55.635Z,8.90
2023-02-17T20:21:25.310Z,9.25
2023-02-17T20:23:52.399Z,8.05
2023-02-17T20:26:21.844Z,8.07
2023-02-17T20:28:49.698Z,8.15
2023-02-17T20:31:16.358Z,8.70
2023-02-17T20:33:43.153Z,8.48
2023-02-17T20:36:10.494Z,9.05
2023-02-17T20:38:37.593Z,7.78
2023-02-17T20:41:05.537Z,8.68
2023-02-17T20:43:32.245Z,8.25
2023-02-17T20:45:58.820Z,8.80
2023-02-17T20:48:28.409Z,8.70
2023-02-17T20:50:56.731Z,8.57
2023-02-17T20:53:23.895Z,8.88
2023-02-17T20:55:51.204Z,8.88
2023-02-17T20:58:17.823Z,9.15
2023-02-17T21:00:44.640Z,8.93
2023-02-17T21:03:11.088Z,9.13
2023-02-17T21:05:37.730Z,9.50
2023-02-17T21:08:04.648Z,9.15
2023-02-17T21:10:32.422Z,9.30
2023-02-17T21:12:58.804Z,9.93
2023-02-17T21:15:25.636Z,9.23
2023-02-17T21:17:52.057Z,9.40
2023-02-17T21:20:21.665Z,9.75
2023-02-17T21:22:48.591Z,9.30
2023-02-17T21:25:15.128Z,9.23
2023-02-17T21:27:41.623Z,9.20
2023-02-17T21:30:09.181Z,9.02
2023-02-17T21:32:35.650Z,9.43
2023-02-17T21:35:02.251Z,9.98
2023-02-17T21:37:28.642Z,10.27
2023-02-17T21:39:55.038Z,9.60
2023-02-17T21:42:42.749Z,10.02
2023-02-17T21:45:10.600Z,9.88
2023-02-17T21:47:37.050Z,10.82
2023-02-17T21:50:03.606Z,10.50
2023-02-17T21:52:29.977Z,10.05
2023-02-17T21:54:56.434Z,10.18
2023-02-17T21:57:22.861Z,9.45
2023-02-17T21:59:49.230Z,10.35
2023-02-17T22:02:15.693Z,9.80
2023-02-17T22:04:42.134Z,9.95
2023-02-17T22:07:09.874Z,10.18
2023-02-17T22:09:36.243Z,9.63
2023-02-17T22:12:02.970Z,10.77
2023-02-17T22:14:29.560Z,10.30
2023-02-17T22:16:57.324Z,10.77
2023-02-17T22:19:25.098Z,11.35
2023-02-17T22:21:51.873Z,10.30
2023-02-17T22:24:20.660Z,10.45
2023-02-17T22:26:48.839Z,11.50
2023-02-17T22:29:15.395Z,11.50
2023-02-17T22:31:41.866Z,10.80
2023-02-17T22:34:11.520Z,11.23
2023-02-17T22:36:38.377Z,11.80
2023-02-17T22:39:07.742Z,11.82
2023-02-17T22:41:34.992Z,11.35
2023-02-17T22:44:03.023Z,11.73
2023-02-17T22:46:29.467Z,10.60
2023-02-17T22:48:57.310Z,11.90
2023-02-17T22:51:35.725Z,11.10
2023-02-17T22:54:02.165Z,11.07
2023-02-17T22:56:29.051Z,12.18
2023-02-17T22:58:57.949Z,11.80
2023-02-17T23:01:24.963Z,11.93
2023-02-17T23:03:54.302Z,11.10
2023-02-17T23:06:35.658Z,11.60
2023-02-17T23:09:02.761Z,11.77
2023-02-17T23:11:52.192Z,11.98
2023-02-17T23:14:26.224Z,11.55
2023-02-17T23:16:54.976Z,11.60
2023-02-17T23:19:22.888Z,11.60
2023-02-17T23:21:52.754Z,11.52
2023-02-17T23:24:20.235Z,11.93
2023-02-17T23:26:47.576Z,12.15
2023-02-17T23:29:15.042Z,11.18
2023-02-17T23:31:42.301Z,11.82
2023-02-17T23:34:09.223Z,11.77
2023-02-17T23:36:38.920Z,12.68
2023-02-17T23:39:05.832Z,11.65
2023-02-17T23:41:33.090Z,11.68
2023-02-17T23:43:59.583Z,12.05
2023-02-17T23:46:27.425Z,11.68
2023-02-17T23:48:54.343Z,12.20
2023-02-17T23:51:20.882Z,11.45
2023-02-17T23:53:47.665Z,11.93
2023-02-17T23:56:18.093Z,12.57
2023-02-17T23:58:44.755Z,11.77
